createdAt,value
2019-03-23T00:01:45.630Z,14.53
2019-03-23T00:12:50.305Z,15.83
2019-03-23T00:21:49.004Z,14.33
2019-03-23T00:24:29.843Z,14.87
2019-03-23T00:27:08.754Z,21.07
2019-03-23T00:29:45.872Z,17.07
2019-03-23T00:32:30.418Z,17.93
2019-03-23T00:38:06.873Z,21.03
2019-03-23T00:40:48.520Z,17.57
2019-03-23T00:43:19.915Z,21.57
2019-03-23T00:45:52.766Z,16.43
2019-03-23T00:48:35.170Z,17.83
2019-03-23T00:51:17.293Z,19.87
2019-03-23T00:53:49.568Z,18.93
2019-03-23T00:56:29.598Z,19.17
2019-03-23T00:59:05.748Z,19.53
2019-03-23T01:01:42.170Z,15.67
2019-03-23T01:04:16.176Z,17.07
2019-03-23T01:06:52.526Z,16.43
2019-03-23T01:09:36.822Z,18.53
2019-03-23T01:12:07.720Z,17.73
2019-03-23T01:14:47.726Z,15.80
2019-03-23T01:17:21.042Z,19.70
2019-03-23T01:19:52.510Z,16.40
2019-03-23T01:22:30.550Z,15.93
2019-03-23T01:25:00.333Z,19.07
2019-03-23T01:27:31.155Z,18.57
2019-03-23T01:30:04.698Z,20.53
2019-03-23T01:32:37.767Z,20.33
2019-03-23T01:35:09.064Z,20.87
2019-03-23T01:40:22.656Z,19.23
2019-03-23T01:42:57.043Z,21.13
2019-03-23T01:45:32.648Z,17.77
2019-03-23T01:48:08.033Z,20.93
2019-03-23T01:50:39.871Z,22.20
2019-03-23T01:53:15.106Z,19.13
2019-03-23T01:55:54.556Z,21.40
2019-03-23T01:58:29.584Z,18.40
2019-03-23T02:03:52.351Z,22.57
2019-03-23T02:06:23.430Z,19.80
2019-03-23T02:08:54.758Z,24.53
2019-03-23T02:11:24.780Z,27.60
2019-03-23T02:13:57.294Z,24.40
2019-03-23T02:16:32.890Z,22.60
2019-03-23T02:19:03.750Z,25.23
2019-03-23T02:21:44.137Z,27.17
2019-03-23T02:24:18.496Z,26.50
2019-03-23T02:26:54.669Z,24.20
2019-03-23T02:32:33.342Z,22.43
2019-03-23T02:35:12.741Z,21.97
2019-03-23T02:37:55.209Z,23.73
2019-03-23T02:40:26.227Z,27.13
2019-03-23T02:45:52.681Z,24.95
2019-03-23T02:48:22.810Z,25.20
2019-03-23T02:50:58.824Z,23.70
2019-03-23T02:53:38.830Z,22.40
2019-03-23T02:56:12.023Z,26.07
2019-03-23T02:58:48.171Z,23.60
2019-03-23T03:01:25.536Z,27.17
2019-03-23T03:04:08.837Z,27.10
2019-03-23T03:06:45.996Z,28.27
2019-03-23T03:09:18.194Z,24.53
2019-03-23T03:11:53.096Z,24.93
2019-03-23T03:14:28.217Z,26.07
2019-03-23T03:20:00.810Z,26.73
2019-03-23T03:22:54.402Z,27.43
2019-03-23T03:25:28.852Z,25.90
2019-03-23T03:28:10.767Z,25.17
2019-03-23T03:30:49.844Z,27.73
2019-03-23T03:33:27.756Z,24.40
2019-03-23T03:36:03.011Z,27.00
2019-03-23T03:38:44.102Z,29.03
2019-03-23T03:41:19.208Z,31.53
2019-03-23T03:43:57.868Z,31.27
2019-03-23T03:46:30.539Z,29.80
2019-03-23T03:49:12.674Z,31.60
2019-03-23T03:51:42.970Z,26.83
2019-03-23T03:54:16.241Z,35.03
2019-03-23T03:56:48.933Z,30.27
2019-03-23T03:59:22.802Z,31.97
2019-03-23T04:01:54.180Z,33.70
2019-03-23T04:04:26.419Z,32.90
2019-03-23T04:07:00.521Z,31.20
2019-03-23T04:09:42.417Z,29.27
2019-03-23T04:12:12.376Z,34.23
2019-03-23T04:14:43.109Z,32.60
2019-03-23T04:17:16.639Z,33.07
2019-03-23T04:19:59.231Z,31.00
2019-03-23T04:22:33.111Z,33.40
2019-03-23T04:25:09.422Z,32.20
2019-03-23T04:27:49.748Z,31.20
2019-03-23T04:30:22.959Z,29.80
2019-03-23T04:32:54.512Z,26.27
2019-03-23T04:35:26.170Z,27.77
2019-03-23T04:37:58.019Z,31.97
2019-03-23T04:40:39.511Z,31.67
2019-03-23T04:43:10.905Z,36.87
2019-03-23T04:45:43.338Z,39.77
2019-03-23T04:48:17.812Z,38.37
2019-03-23T04:50:51.444Z,42.13
2019-03-23T04:53:23.113Z,39.43
2019-03-23T04:56:06.574Z,40.20
2019-03-23T04:58:39.592Z,36.77
2019-03-23T05:01:12.600Z,42.33
2019-03-23T05:03:45.125Z,36.70
2019-03-23T05:06:18.082Z,41.53
2019-03-23T05:08:50.586Z,41.13
2019-03-23T05:11:27.682Z,44.43
2019-03-23T05:14:00.896Z,45.87
2019-03-23T05:16:30.973Z,45.77
2019-03-23T05:19:04.654Z,51.00
2019-03-23T05:21:35.150Z,45.60
2019-03-23T05:24:06.841Z,49.13
2019-03-23T05:26:47.094Z,47.83
2019-03-23T05:29:21.312Z,51.37
2019-03-23T05:37:45.382Z,48.43
2019-03-23T05:40:27.890Z,46.00
2019-03-23T05:43:09.524Z,43.70
2019-03-23T05:45:49.107Z,47.67
2019-03-23T05:48:25.488Z,44.03
2019-03-23T06:00:05.298Z,52.43
2019-03-23T06:02:54.335Z,46.93
2019-03-23T06:05:31.630Z,46.90
2019-03-23T06:08:08.386Z,44.33
2019-03-23T06:16:39.070Z,54.17
2019-03-23T06:22:09.149Z,45.67
2019-03-23T06:24:51.762Z,50.10
2019-03-23T06:27:29.146Z,47.13
2019-03-23T06:30:10.109Z,49.60
2019-03-23T06:32:45.122Z,46.73
2019-03-23T06:35:21.399Z,48.97
2019-03-23T06:37:54.253Z,50.43
2019-03-23T06:40:24.768Z,47.10
2019-03-23T06:42:59.623Z,51.00
2019-03-23T06:45:26.713Z,48.70
2019-03-23T06:51:03.310Z,48.23
2019-03-23T06:53:44.399Z,45.20
2019-03-23T06:56:19.601Z,46.10
2019-03-23T06:59:03.935Z,43.53
2019-03-23T07:01:53.908Z,45.13
2019-03-23T07:04:28.863Z,46.07
2019-03-23T07:07:07.360Z,46.40
2019-03-23T07:12:54.791Z,45.67
2019-03-23T07:15:28.451Z,47.40
2019-03-23T07:18:03.859Z,50.83
2019-03-23T07:20:44.768Z,44.63
2019-03-23T07:23:22.440Z,46.23
2019-03-23T07:25:58.501Z,49.47
2019-03-23T07:28:49.123Z,47.10
2019-03-23T07:31:26.786Z,42.97
2019-03-23T07:34:10.227Z,42.03
2019-03-23T07:36:49.169Z,45.80
2019-03-23T07:39:57.036Z,42.07
2019-03-23T07:42:33.597Z,39.30
2019-03-23T07:45:20.417Z,40.17
2019-03-23T07:48:03.525Z,43.70
2019-03-23T07:50:44.609Z,37.13
2019-03-23T07:53:22.355Z,46.53
2019-03-23T07:56:16.422Z,43.37
2019-03-23T08:01:34.009Z,42.97
2019-03-23T08:04:23.532Z,45.20
2019-03-23T08:06:55.728Z,45.83
2019-03-23T08:09:37.579Z,45.13
2019-03-23T08:15:14.334Z,39.60
2019-03-23T08:17:51.715Z,40.00
2019-03-23T08:20:23.684Z,42.63
2019-03-23T08:22:57.337Z,42.90
2019-03-23T08:29:04.488Z,41.43
2019-03-23T08:31:44.965Z,37.03
2019-03-23T08:34:20.695Z,44.57
2019-03-23T08:37:02.164Z,36.33
2019-03-23T08:39:48.164Z,42.40
2019-03-23T08:42:12.073Z,38.30
2019-03-23T08:44:44.006Z,35.43
2019-03-23T08:47:15.786Z,31.07
2019-03-23T08:49:57.063Z,30.40
2019-03-23T08:52:41.447Z,38.43
2019-03-23T08:55:33.539Z,36.67
2019-03-23T08:58:16.963Z,37.30
2019-03-23T09:01:01.329Z,37.73
2019-03-23T09:03:52.336Z,39.37
2019-03-23T09:06:31.398Z,38.80
2019-03-23T09:09:20.857Z,37.30
2019-03-23T09:12:00.240Z,35.80
2019-03-23T09:17:28.901Z,36.23
2019-03-23T09:23:00.984Z,32.90
2019-03-23T09:25:46.471Z,34.00
2019-03-23T09:28:48.095Z,34.60
2019-03-23T09:34:46.715Z,32.73
2019-03-23T09:37:24.842Z,29.43
2019-03-23T09:39:58.777Z,32.40
2019-03-23T09:42:44.480Z,27.53
2019-03-23T09:45:29.744Z,25.47
2019-03-23T09:48:09.864Z,26.87
2019-03-23T09:50:43.338Z,31.30
2019-03-23T10:02:32.976Z,25.40
2019-03-23T10:05:31.440Z,26.27
2019-03-23T10:08:03.531Z,28.57
2019-03-23T10:10:47.224Z,29.60
2019-03-23T10:13:34.026Z,27.97
2019-03-23T10:16:09.585Z,24.93
2019-03-23T10:18:49.953Z,32.20
2019-03-23T10:28:03.407Z,27.73
2019-03-23T10:30:37.191Z,27.73
2019-03-23T10:33:07.140Z,27.07
2019-03-23T10:35:37.492Z,27.77
2019-03-23T10:47:18.669Z,26.37
2019-03-23T10:52:55.272Z,23.57
2019-03-23T10:55:33.893Z,22.97
2019-03-23T10:58:09.420Z,24.60
2019-03-23T11:00:43.618Z,21.63
2019-03-23T11:03:17.171Z,18.87
2019-03-23T11:05:50.528Z,23.93
2019-03-23T11:08:24.204Z,16.80
2019-03-23T11:10:56.785Z,20.03
2019-03-23T11:16:26.387Z,22.27
2019-03-23T11:19:00.286Z,21.40
2019-03-23T11:21:38.751Z,28.70
2019-03-23T11:24:14.696Z,23.90
2019-03-23T11:26:48.936Z,24.50
2019-03-23T11:29:19.047Z,22.00
2019-03-23T11:31:52.574Z,24.63
2019-03-23T11:34:24.060Z,25.93
2019-03-23T11:36:55.799Z,27.13
2019-03-23T11:39:36.557Z,21.43
2019-03-23T11:42:16.402Z,22.30
2019-03-23T11:44:50.001Z,21.70
2019-03-23T11:47:24.586Z,20.17
2019-03-23T11:50:13.044Z,22.20
2019-03-23T11:52:47.096Z,21.02
2019-03-23T11:55:19.171Z,17.90
2019-03-23T11:57:50.957Z,19.00
2019-03-23T12:07:08.498Z,31.65
2019-03-23T12:09:56.517Z,25.95
2019-03-23T12:12:33.315Z,28.70
2019-03-23T12:15:06.868Z,23.60
2019-03-23T12:17:49.199Z,25.65
2019-03-23T12:20:19.587Z,34.30
2019-03-23T12:22:58.583Z,33.25
2019-03-23T12:25:36.512Z,30.43
2019-03-23T12:28:17.237Z,29.12
2019-03-23T12:30:51.691Z,38.58
2019-03-23T12:37:40.837Z,32.83
2019-03-23T12:39:55.840Z,31.20
2019-03-23T12:42:36.301Z,32.65
2019-03-23T12:45:18.998Z,33.00
2019-03-23T12:47:53.505Z,30.08
2019-03-23T12:50:32.510Z,23.20
2019-03-23T12:53:03.455Z,30.75
2019-03-23T12:55:40.217Z,35.10
2019-03-23T12:58:17.122Z,35.73
2019-03-23T13:00:49.270Z,38.00
2019-03-23T13:03:22.929Z,28.02
2019-03-23T13:05:54.743Z,25.60
2019-03-23T13:08:32.633Z,29.00
2019-03-23T13:11:03.465Z,31.93
2019-03-23T13:13:33.889Z,30.57
2019-03-23T13:16:06.739Z,28.60
2019-03-23T13:18:39.868Z,30.70
2019-03-23T13:21:21.408Z,34.57
2019-03-23T13:23:53.571Z,30.23
2019-03-23T13:26:34.446Z,27.97
2019-03-23T13:29:10.395Z,35.53
2019-03-23T13:31:44.556Z,29.67
2019-03-23T13:34:16.197Z,24.63
2019-03-23T13:36:50.342Z,23.93
2019-03-23T13:42:30.709Z,28.93
2019-03-23T13:51:10.057Z,21.43
2019-03-23T13:56:38.540Z,17.37
2019-03-23T13:59:14.138Z,21.03
2019-03-23T14:04:46.129Z,21.10
2019-03-23T14:07:17.002Z,24.47
2019-03-23T14:09:52.985Z,25.43
2019-03-23T14:12:24.419Z,25.20
2019-03-23T14:15:15.926Z,22.97
2019-03-23T14:18:05.116Z,21.67
2019-03-23T14:20:46.604Z,24.73
2019-03-23T14:23:23.009Z,22.43
2019-03-23T14:25:59.622Z,22.07
2019-03-23T14:28:31.425Z,27.47
2019-03-23T14:31:08.626Z,27.57
2019-03-23T14:33:40.736Z,31.07
2019-03-23T14:36:13.971Z,29.47
2019-03-23T14:38:49.618Z,28.57
2019-03-23T14:41:23.247Z,43.40
2019-03-23T14:43:59.276Z,57.73
2019-03-23T14:46:37.906Z,65.17
2019-03-23T14:52:14.034Z,75.90
2019-03-23T14:54:59.630Z,87.63
2019-03-23T15:03:30.850Z,91.77
2019-03-23T15:06:24.207Z,78.67
2019-03-23T15:09:05.019Z,86.63
2019-03-23T15:11:46.355Z,76.30
2019-03-23T15:17:11.990Z,76.50
2019-03-23T15:19:47.351Z,80.43
2019-03-23T15:22:22.868Z,69.00
2019-03-23T15:28:17.686Z,73.97
2019-03-23T15:31:05.414Z,72.30
2019-03-23T15:34:09.863Z,67.10
2019-03-23T15:40:29.976Z,42.60
2019-03-23T15:43:18.944Z,43.83
2019-03-23T15:46:01.369Z,43.03
2019-03-23T15:48:53.786Z,41.30
2019-03-23T15:51:31.462Z,33.03
2019-03-23T15:54:13.686Z,75.50
2019-03-23T15:56:55.084Z,67.63
2019-03-23T15:59:46.451Z,40.60
2019-03-23T16:11:55.591Z,29.10
2019-03-23T16:14:39.195Z,28.90
2019-03-23T16:17:22.293Z,26.77
2019-03-23T16:20:07.225Z,31.87
2019-03-23T16:22:44.019Z,30.63
2019-03-23T16:28:15.668Z,42.20
2019-03-23T16:31:02.785Z,40.50
2019-03-23T16:33:42.010Z,30.83
2019-03-23T16:36:19.646Z,39.23
2019-03-23T16:38:49.776Z,34.73
2019-03-23T16:41:22.617Z,36.83
2019-03-23T16:43:59.907Z,31.83
2019-03-23T16:46:40.191Z,35.67
2019-03-23T16:49:14.569Z,33.83
2019-03-23T16:51:47.865Z,36.80
2019-03-23T16:54:33.017Z,41.40
2019-03-23T16:57:17.246Z,39.23
2019-03-23T16:59:53.072Z,36.47
2019-03-23T17:02:24.129Z,34.30
2019-03-23T17:04:58.219Z,39.00
2019-03-23T17:07:37.759Z,38.53
2019-03-23T17:10:15.860Z,39.90
2019-03-23T17:12:55.912Z,41.30
2019-03-23T17:15:34.665Z,43.20
2019-03-23T17:18:15.361Z,46.60
2019-03-23T17:20:56.713Z,41.43
2019-03-23T17:23:39.019Z,46.27
2019-03-23T17:26:30.305Z,42.77
2019-03-23T17:29:21.440Z,48.37
2019-03-23T17:35:04.004Z,53.60
2019-03-23T17:37:39.284Z,46.53
2019-03-23T17:43:05.371Z,39.23
2019-03-23T17:45:30.183Z,46.53
2019-03-23T17:48:07.191Z,41.37
2019-03-23T17:50:42.974Z,41.60
2019-03-23T17:53:40.686Z,46.10
2019-03-23T17:56:26.336Z,45.13
2019-03-23T18:05:13.084Z,47.77
2019-03-23T18:10:52.169Z,54.40
2019-03-23T18:13:28.631Z,45.53
2019-03-23T18:24:08.380Z,39.20
2019-03-23T18:25:24.902Z,40.83
2019-03-23T18:31:01.346Z,45.30
2019-03-23T18:39:41.885Z,46.40
2019-03-23T18:42:21.652Z,36.83
2019-03-23T18:45:22.871Z,40.73
2019-03-23T18:48:20.098Z,40.03
2019-03-23T18:56:43.107Z,46.23
2019-03-23T18:59:19.512Z,39.83
2019-03-23T19:18:13.366Z,44.30
2019-03-23T19:29:41.596Z,40.93
2019-03-23T19:32:28.918Z,46.50
2019-03-23T19:37:56.806Z,42.60
2019-03-23T19:43:36.985Z,38.20
2019-03-23T19:57:48.146Z,33.83
2019-03-23T20:00:27.815Z,35.57
2019-03-23T20:03:08.482Z,33.97
2019-03-23T20:08:46.618Z,34.83
2019-03-23T20:14:42.869Z,31.67
2019-03-23T20:26:30.156Z,26.00
2019-03-23T20:29:16.212Z,29.77
2019-03-23T20:31:55.728Z,31.70
2019-03-23T20:37:38.961Z,28.53
2019-03-23T20:43:28.508Z,24.57
2019-03-23T20:46:13.884Z,22.93
2019-03-23T20:48:51.979Z,21.93
2019-03-23T20:54:24.415Z,22.60
2019-03-23T20:57:36.685Z,26.60
2019-03-23T21:00:26.528Z,19.97
2019-03-23T21:06:06.847Z,20.63
2019-03-23T21:09:00.914Z,17.17
2019-03-23T21:11:41.839Z,17.63
2019-03-23T21:14:24.704Z,18.90
2019-03-23T21:17:10.449Z,17.33
2019-03-23T21:22:50.321Z,16.60
2019-03-23T21:28:40.317Z,15.40
2019-03-23T21:38:23.400Z,14.50
2019-03-23T21:43:42.834Z,14.70
2019-03-23T21:52:00.969Z,13.43
2019-03-23T21:54:51.665Z,11.63
2019-03-23T22:04:06.308Z,11.50
2019-03-23T22:09:57.612Z,13.43
2019-03-23T22:12:42.581Z,13.67
2019-03-23T22:15:16.026Z,13.57
2019-03-23T22:20:59.627Z,13.70
2019-03-23T22:23:53.054Z,14.83
2019-03-23T22:26:39.784Z,17.47
2019-03-23T22:29:38.084Z,12.97
2019-03-23T22:35:04.487Z,15.43
2019-03-23T22:40:50.978Z,10.83
2019-03-23T22:46:41.198Z,13.97
2019-03-23T22:58:23.718Z,9.30
2019-03-23T23:01:06.421Z,13.70
2019-03-23T23:09:52.435Z,9.73
2019-03-23T23:12:27.895Z,11.13
2019-03-23T23:15:13.456Z,10.30
2019-03-23T23:17:47.387Z,10.20
2019-03-23T23:20:28.844Z,11.77
2019-03-23T23:23:11.524Z,7.40
2019-03-23T23:25:46.521Z,11.90
2019-03-23T23:28:26.996Z,11.10
2019-03-23T23:31:07.028Z,10.97
2019-03-23T23:33:57.484Z,9.67
2019-03-23T23:36:49.002Z,12.27
2019-03-23T23:45:40.088Z,11.40
2019-03-23T23:48:50.944Z,14.17
2019-03-23T23:58:02.953Z,8.70
